createdAt,value
2022-09-13T00:00:51.907Z,745.67
2022-09-13T00:03:20.875Z,745.40
2022-09-13T00:05:49.554Z,737.27
2022-09-13T00:08:18.361Z,741.77
2022-09-13T00:10:47.516Z,743.33
2022-09-13T00:13:18.197Z,742.47
2022-09-13T00:15:47.338Z,747.47
2022-09-13T00:18:15.966Z,747.83
2022-09-13T00:20:44.410Z,746.73
2022-09-13T00:23:12.711Z,752.03
2022-09-13T00:25:41.372Z,741.67
2022-09-13T00:28:09.685Z,748.03
2022-09-13T00:30:39.530Z,744.20
2022-09-13T00:33:07.867Z,751.43
2022-09-13T00:35:36.247Z,747.93
2022-09-13T00:38:04.942Z,749.90
2022-09-13T00:40:38.866Z,744.00
2022-09-13T00:43:10.449Z,740.77
2022-09-13T00:45:40.298Z,746.67
2022-09-13T00:48:09.757Z,738.70
2022-09-13T00:50:40.364Z,747.33
2022-09-13T00:53:11.122Z,744.53
2022-09-13T00:55:43.158Z,742.97
2022-09-13T00:58:15.983Z,742.70
2022-09-13T01:00:45.786Z,742.30
2022-09-13T01:03:15.322Z,752.93
2022-09-13T01:05:45.515Z,740.57
2022-09-13T01:08:16.125Z,738.83
2022-09-13T01:10:45.145Z,747.53
2022-09-13T01:13:16.980Z,745.60
2022-09-13T01:15:46.437Z,741.70
2022-09-13T01:18:14.946Z,744.77
2022-09-13T01:21:07.299Z,744.27
2022-09-13T01:24:16.283Z,742.70
2022-09-13T01:26:53.978Z,743.97
2022-09-13T01:29:57.591Z,747.60
2022-09-13T01:32:35.402Z,743.73
2022-09-13T01:35:12.181Z,742.47
2022-09-13T01:37:47.953Z,756.80
2022-09-13T01:40:32.591Z,745.40
2022-09-13T01:43:18.122Z,735.00
2022-09-13T01:45:52.672Z,745.50
2022-09-13T01:48:25.809Z,747.33
2022-09-13T01:51:01.709Z,736.97
2022-09-13T01:53:35.374Z,746.40
2022-09-13T01:56:06.317Z,741.47
2022-09-13T01:58:41.382Z,743.50
2022-09-13T02:01:13.616Z,738.83
2022-09-13T02:03:46.874Z,746.87
2022-09-13T02:06:17.049Z,751.07
2022-09-13T02:08:46.571Z,746.20
2022-09-13T02:11:17.141Z,741.67
2022-09-13T02:13:50.532Z,742.67
2022-09-13T02:16:24.606Z,737.33
2022-09-13T02:18:56.184Z,746.87
2022-09-13T02:21:28.565Z,749.10
2022-09-13T02:23:59.624Z,751.03
2022-09-13T02:26:31.855Z,747.50
2022-09-13T02:29:02.507Z,743.13
2022-09-13T02:31:33.837Z,742.23
2022-09-13T02:34:06.801Z,749.67
2022-09-13T02:36:38.180Z,747.93
2022-09-13T02:39:11.066Z,751.50
2022-09-13T02:41:45.241Z,749.90
2022-09-13T02:44:15.354Z,747.67
2022-09-13T02:47:02.661Z,747.87
2022-09-13T02:49:35.879Z,756.53
2022-09-13T02:52:09.122Z,748.00
2022-09-13T02:54:40.290Z,755.80
2022-09-13T02:57:13.289Z,748.57
2022-09-13T02:59:41.414Z,747.87
2022-09-13T03:02:14.552Z,740.20
2022-09-13T03:04:44.126Z,755.37
2022-09-13T03:07:13.272Z,741.30
2022-09-13T03:09:45.566Z,739.27
2022-09-13T03:12:42.622Z,760.10
2022-09-13T03:15:15.643Z,741.83
2022-09-13T03:17:54.072Z,741.90
2022-09-13T03:20:30.451Z,742.97
2022-09-13T03:23:33.833Z,739.40
2022-09-13T03:26:21.844Z,731.43
2022-09-13T03:28:55.814Z,739.93
2022-09-13T03:31:29.375Z,734.87
2022-09-13T03:34:00.024Z,739.33
2022-09-13T03:36:35.255Z,744.70
2022-09-13T03:39:13.122Z,738.87
2022-09-13T03:41:45.761Z,744.30
2022-09-13T03:44:16.790Z,749.27
2022-09-13T03:46:46.185Z,749.20
2022-09-13T03:49:16.875Z,752.23
2022-09-13T03:51:48.982Z,743.87
2022-09-13T03:54:21.223Z,744.13
2022-09-13T03:57:07.178Z,748.47
2022-09-13T03:59:36.516Z,753.97
2022-09-13T04:02:04.853Z,743.23
2022-09-13T04:04:33.133Z,744.07
2022-09-13T04:07:04.297Z,743.80
2022-09-13T04:09:32.418Z,741.23
2022-09-13T04:12:00.569Z,740.80
2022-09-13T04:14:28.733Z,742.57
2022-09-13T04:17:00.456Z,750.60
2022-09-13T04:19:28.677Z,748.53
2022-09-13T04:21:58.690Z,738.47
2022-09-13T04:24:29.167Z,752.30
2022-09-13T04:26:57.558Z,739.13
2022-09-13T04:29:27.302Z,748.73
2022-09-13T04:31:56.163Z,741.70
2022-09-13T04:34:24.882Z,743.40
2022-09-13T04:36:54.139Z,752.63
2022-09-13T04:39:24.372Z,747.37
2022-09-13T04:41:58.737Z,742.57
2022-09-13T04:44:27.190Z,741.57
2022-09-13T04:46:57.138Z,743.97
2022-09-13T04:49:25.726Z,739.73
2022-09-13T04:51:53.874Z,753.17
2022-09-13T04:54:22.107Z,751.03
2022-09-13T04:56:50.410Z,749.90
2022-09-13T04:59:19.782Z,742.23
2022-09-13T05:01:49.230Z,750.70
2022-09-13T05:04:17.406Z,740.50
2022-09-13T05:06:45.395Z,740.90
2022-09-13T05:09:16.367Z,744.40
2022-09-13T05:11:44.430Z,738.63
2022-09-13T05:14:13.228Z,742.57
2022-09-13T05:16:42.864Z,752.37
2022-09-13T05:19:11.562Z,748.53
2022-09-13T05:21:39.632Z,746.80
2022-09-13T05:24:07.928Z,743.87
2022-09-13T05:26:36.267Z,742.60
2022-09-13T05:29:05.051Z,731.47
2022-09-13T05:31:34.846Z,741.67
2022-09-13T05:34:06.657Z,740.10
2022-09-13T05:36:34.955Z,742.40
2022-09-13T05:39:29.118Z,747.10
2022-09-13T05:41:54.084Z,742.50
2022-09-13T05:44:22.039Z,743.63
2022-09-13T05:46:50.302Z,736.93
2022-09-13T05:49:19.671Z,729.27
2022-09-13T05:51:47.662Z,728.87
2022-09-13T05:54:15.707Z,733.33
2022-09-13T05:56:43.662Z,743.97
2022-09-13T05:59:14.078Z,733.27
2022-09-13T06:01:42.294Z,745.90
2022-09-13T06:04:12.529Z,744.13
2022-09-13T06:06:42.179Z,740.43
2022-09-13T06:09:12.105Z,733.27
2022-09-13T06:11:40.140Z,743.33
2022-09-13T06:14:08.420Z,736.63
2022-09-13T06:16:36.811Z,737.77
2022-09-13T06:19:05.047Z,728.63
2022-09-13T06:21:32.969Z,732.50
2022-09-13T06:24:03.886Z,732.60
2022-09-13T06:26:31.880Z,738.40
2022-09-13T06:29:00.369Z,733.23
2022-09-13T06:31:29.959Z,732.07
2022-09-13T06:33:59.435Z,732.07
2022-09-13T06:36:27.884Z,723.57
2022-09-13T06:38:56.971Z,735.17
2022-09-13T06:41:28.695Z,735.13
2022-09-13T06:44:01.819Z,732.73
2022-09-13T06:46:31.350Z,734.13
2022-09-13T06:49:00.861Z,725.43
2022-09-13T06:51:29.731Z,732.43
2022-09-13T06:53:57.894Z,735.07
2022-09-13T06:56:28.967Z,733.87
2022-09-13T06:58:58.950Z,723.77
2022-09-13T07:01:28.690Z,730.53
2022-09-13T07:03:59.790Z,732.30
2022-09-13T07:06:29.690Z,727.67
2022-09-13T07:08:59.102Z,718.50
2022-09-13T07:11:32.699Z,710.90
2022-09-13T07:14:01.018Z,729.73
2022-09-13T07:16:30.378Z,718.80
2022-09-13T07:18:59.655Z,721.60
2022-09-13T07:21:29.027Z,725.73
2022-09-13T07:23:57.705Z,721.60
2022-09-13T07:26:27.365Z,729.40
2022-09-13T07:28:58.828Z,729.20
2022-09-13T07:31:28.808Z,717.13
2022-09-13T07:33:58.081Z,720.07
2022-09-13T07:36:26.885Z,719.27
2022-09-13T07:38:54.996Z,718.80
2022-09-13T07:41:23.903Z,714.97
2022-09-13T07:43:52.313Z,714.67
2022-09-13T07:46:23.327Z,718.50
2022-09-13T07:48:54.148Z,713.73
2022-09-13T07:51:23.608Z,723.33
2022-09-13T07:53:57.124Z,710.30
2022-09-13T07:56:27.685Z,721.53
2022-09-13T07:58:56.154Z,722.60
2022-09-13T08:01:26.869Z,719.70
2022-09-13T08:03:56.293Z,712.27
2022-09-13T08:06:26.436Z,715.90
2022-09-13T08:08:54.576Z,712.20
2022-09-13T08:11:32.237Z,722.43
2022-09-13T08:14:00.401Z,717.07
2022-09-13T08:16:30.890Z,714.10
2022-09-13T08:19:01.138Z,716.60
2022-09-13T08:21:34.671Z,719.70
2022-09-13T08:24:06.677Z,714.80
2022-09-13T08:26:36.470Z,719.00
2022-09-13T08:29:05.932Z,714.13
2022-09-13T08:31:36.056Z,713.20
2022-09-13T08:34:04.077Z,709.77
2022-09-13T08:36:32.370Z,703.73
2022-09-13T08:39:02.558Z,699.57
2022-09-13T08:41:52.715Z,698.97
2022-09-13T08:44:28.099Z,709.03
2022-09-13T08:47:01.801Z,706.93
2022-09-13T08:49:36.268Z,701.10
2022-09-13T08:52:12.108Z,699.27
2022-09-13T08:54:40.212Z,715.27
2022-09-13T08:57:15.036Z,712.73
2022-09-13T08:59:53.793Z,705.43
2022-09-13T09:02:37.412Z,701.03
2022-09-13T09:05:17.927Z,706.23
2022-09-13T09:07:48.622Z,708.47
2022-09-13T09:10:19.599Z,692.23
2022-09-13T09:12:50.041Z,689.50
2022-09-13T09:15:20.472Z,707.80
2022-09-13T09:17:55.489Z,687.00
2022-09-13T09:20:27.934Z,709.10
2022-09-13T09:22:56.757Z,696.77
2022-09-13T09:25:28.646Z,696.87
2022-09-13T09:27:58.034Z,693.27
2022-09-13T09:30:38.107Z,687.00
2022-09-13T09:33:21.374Z,683.80
2022-09-13T09:35:56.299Z,674.10
2022-09-13T09:38:33.358Z,669.97
2022-09-13T09:41:06.879Z,671.40
2022-09-13T09:43:38.896Z,665.43
2022-09-13T09:46:08.500Z,652.07
2022-09-13T09:48:42.288Z,665.63
2022-09-13T09:51:11.587Z,646.97
2022-09-13T09:53:43.454Z,643.40
2022-09-13T09:56:22.770Z,641.23
2022-09-13T09:58:51.415Z,638.00
2022-09-13T10:01:23.884Z,641.23
2022-09-13T10:04:04.477Z,633.40
2022-09-13T10:06:33.178Z,643.07
2022-09-13T10:09:02.849Z,638.10
2022-09-13T10:11:42.477Z,632.40
2022-09-13T10:14:30.074Z,633.10
2022-09-13T10:17:06.486Z,641.87
2022-09-13T10:19:38.473Z,631.20
2022-09-13T10:22:10.266Z,633.53
2022-09-13T10:24:38.296Z,642.90
2022-09-13T10:27:06.832Z,641.43
2022-09-13T10:29:34.781Z,642.80
2022-09-13T10:32:09.771Z,645.47
2022-09-13T10:34:39.467Z,637.60
2022-09-13T10:37:13.952Z,645.70
2022-09-13T10:39:56.950Z,643.00
2022-09-13T10:42:27.209Z,637.87
2022-09-13T10:44:56.977Z,638.07
2022-09-13T10:47:27.614Z,647.30
2022-09-13T10:49:59.279Z,652.97
2022-09-13T10:52:32.298Z,654.40
2022-09-13T10:55:25.682Z,641.23
2022-09-13T10:57:55.364Z,641.47
2022-09-13T11:00:25.631Z,632.90
2022-09-13T11:03:22.360Z,644.07
2022-09-13T11:05:55.895Z,636.93
2022-09-13T11:08:41.383Z,635.60
2022-09-13T11:11:13.991Z,633.33
2022-09-13T11:13:55.000Z,629.03
2022-09-13T11:16:36.116Z,635.20
2022-09-13T11:19:14.261Z,624.27
2022-09-13T11:21:57.731Z,637.80
2022-09-13T11:24:44.293Z,628.27
2022-09-13T11:27:16.502Z,623.13
2022-09-13T11:30:02.311Z,632.47
2022-09-13T11:32:40.214Z,625.67
2022-09-13T11:35:27.105Z,630.97
2022-09-13T11:38:03.080Z,619.27
2022-09-13T11:40:37.486Z,616.03
2022-09-13T11:43:21.330Z,625.17
2022-09-13T11:45:57.527Z,641.87
2022-09-13T11:48:45.784Z,630.37
2022-09-13T11:51:22.348Z,637.80
2022-09-13T11:54:05.692Z,626.77
2022-09-13T11:56:36.594Z,638.47
2022-09-13T11:59:15.595Z,634.60
2022-09-13T12:01:50.691Z,635.33
2022-09-13T12:04:23.662Z,630.73
2022-09-13T12:06:56.647Z,625.70
2022-09-13T12:09:29.573Z,617.50
2022-09-13T12:12:05.342Z,633.03
2022-09-13T12:14:42.535Z,638.70
2022-09-13T12:17:20.848Z,634.23
2022-09-13T12:19:51.548Z,632.90
2022-09-13T12:22:20.191Z,639.77
2022-09-13T12:24:51.893Z,637.80
2022-09-13T12:27:26.543Z,631.47
2022-09-13T12:29:56.702Z,638.33
2022-09-13T12:32:24.863Z,622.83
2022-09-13T12:34:58.675Z,631.83
2022-09-13T12:37:38.109Z,631.60
2022-09-13T12:40:20.839Z,637.10
2022-09-13T12:43:03.609Z,626.50
2022-09-13T12:45:45.999Z,638.90
2022-09-13T12:48:40.348Z,626.67
2022-09-13T12:51:16.011Z,631.90
2022-09-13T12:54:05.615Z,625.20
2022-09-13T12:56:44.395Z,635.93
2022-09-13T12:59:36.007Z,630.20
2022-09-13T13:02:04.909Z,635.50
2022-09-13T13:04:35.673Z,631.90
2022-09-13T13:07:05.232Z,644.07
2022-09-13T13:09:41.021Z,628.03
2022-09-13T13:12:11.354Z,626.07
2022-09-13T13:14:53.345Z,629.77
2022-09-13T13:17:39.755Z,627.03
2022-09-13T13:20:45.921Z,630.37
2022-09-13T13:23:20.050Z,633.30
2022-09-13T13:26:07.729Z,637.93
2022-09-13T13:29:06.617Z,628.23
2022-09-13T13:31:39.319Z,626.80
2022-09-13T13:34:41.378Z,632.60
2022-09-13T13:37:28.177Z,630.57
2022-09-13T13:40:14.466Z,622.23
2022-09-13T13:42:45.132Z,628.37
2022-09-13T13:45:24.736Z,627.53
2022-09-13T13:47:56.257Z,624.20
2022-09-13T13:50:24.245Z,629.27
2022-09-13T13:52:55.720Z,624.67
2022-09-13T13:55:41.157Z,631.03
2022-09-13T13:58:26.048Z,629.50
2022-09-13T14:00:56.086Z,627.60
2022-09-13T14:03:32.312Z,619.20
2022-09-13T14:06:07.609Z,620.70
2022-09-13T14:08:46.140Z,616.97
2022-09-13T14:11:20.860Z,629.50
2022-09-13T14:13:58.636Z,621.60
2022-09-13T14:16:38.129Z,610.90
2022-09-13T14:19:24.932Z,623.63
2022-09-13T14:22:14.693Z,622.10
2022-09-13T14:24:46.241Z,623.17
2022-09-13T14:27:19.682Z,620.20
2022-09-13T14:29:49.992Z,626.27
2022-09-13T14:32:22.380Z,616.33
2022-09-13T14:34:58.722Z,619.03
2022-09-13T14:37:30.003Z,630.20
2022-09-13T14:40:00.451Z,622.80
2022-09-13T14:42:39.271Z,623.07
2022-09-13T14:45:07.858Z,634.10
2022-09-13T14:47:44.980Z,619.80
2022-09-13T14:50:15.540Z,629.03
2022-09-13T14:52:49.160Z,621.17
2022-09-13T14:55:19.705Z,624.60
2022-09-13T14:57:50.223Z,632.77
2022-09-13T15:00:20.540Z,637.47
2022-09-13T15:02:51.599Z,626.33
2022-09-13T15:05:21.916Z,636.10
2022-09-13T15:07:50.423Z,636.87
2022-09-13T15:10:24.948Z,634.87
2022-09-13T15:12:55.527Z,636.13
2022-09-13T15:15:33.713Z,642.90
2022-09-13T15:18:05.064Z,630.40
2022-09-13T15:20:47.169Z,646.10
2022-09-13T15:23:16.773Z,647.00
2022-09-13T15:25:53.371Z,646.17
2022-09-13T15:28:24.195Z,644.70
2022-09-13T15:30:52.906Z,654.87
2022-09-13T15:33:28.449Z,651.17
2022-09-13T15:36:24.228Z,654.33
2022-09-13T15:39:03.473Z,656.50
2022-09-13T15:41:33.919Z,662.10
2022-09-13T15:44:03.427Z,655.10
2022-09-13T15:46:32.081Z,649.93
2022-09-13T15:49:03.436Z,667.37
2022-09-13T15:51:34.400Z,659.73
2022-09-13T15:54:07.301Z,662.03
2022-09-13T15:56:37.827Z,671.30
2022-09-13T15:59:05.905Z,681.20
2022-09-13T16:01:33.968Z,685.33
2022-09-13T16:04:06.153Z,693.20
2022-09-13T16:06:34.164Z,688.83
2022-09-13T16:09:02.271Z,692.70
2022-09-13T16:11:30.365Z,693.80
2022-09-13T16:14:01.040Z,707.47
2022-09-13T16:16:29.132Z,714.30
2022-09-13T16:18:57.049Z,719.07
2022-09-13T16:21:31.693Z,720.40
2022-09-13T16:24:00.107Z,727.07
2022-09-13T16:26:32.513Z,732.93
2022-09-13T16:29:01.166Z,744.40
2022-09-13T16:31:29.973Z,745.93
2022-09-13T16:34:21.412Z,744.23
2022-09-13T16:36:51.038Z,749.53
2022-09-13T16:39:19.248Z,749.17
2022-09-13T16:41:47.806Z,762.17
2022-09-13T16:44:19.175Z,759.53
2022-09-13T16:46:52.854Z,774.20
2022-09-13T16:49:21.145Z,776.30
2022-09-13T16:51:51.136Z,771.90
2022-09-13T16:54:19.190Z,778.57
2022-09-13T16:59:54.719Z,784.70
2022-09-13T17:02:24.235Z,789.20
2022-09-13T17:05:09.917Z,788.60
2022-09-13T17:07:42.690Z,798.23
2022-09-13T17:10:12.481Z,795.53
2022-09-13T17:12:43.792Z,806.03
2022-09-13T17:15:12.180Z,806.27
2022-09-13T17:17:40.544Z,808.23
2022-09-13T17:20:11.088Z,779.63
2022-09-13T17:22:40.954Z,784.23
2022-09-13T17:25:10.289Z,786.53
2022-09-13T17:27:38.444Z,793.83
2022-09-13T17:30:07.359Z,801.60
2022-09-13T17:32:35.453Z,807.93
2022-09-13T17:35:03.700Z,802.03
2022-09-13T17:37:31.886Z,801.57
2022-09-13T17:40:01.453Z,814.83
2022-09-13T17:42:29.699Z,813.70
2022-09-13T17:44:57.836Z,821.13
2022-09-13T17:47:25.796Z,818.07
2022-09-13T17:49:54.307Z,821.27
2022-09-13T17:52:22.394Z,814.03
2022-09-13T17:55:04.524Z,839.20
2022-09-13T17:57:34.922Z,836.57
2022-09-13T18:00:05.186Z,854.47
2022-09-13T18:02:36.262Z,864.43
2022-09-13T18:05:10.657Z,869.60
2022-09-13T18:07:42.182Z,867.03
2022-09-13T18:10:32.326Z,872.87
2022-09-13T18:13:00.889Z,869.30
2022-09-13T18:15:29.189Z,872.80
2022-09-13T18:17:57.429Z,871.87
2022-09-13T18:20:26.161Z,877.50
2022-09-13T18:22:54.397Z,874.83
2022-09-13T18:25:23.629Z,871.77
2022-09-13T18:27:56.744Z,876.83
2022-09-13T18:30:32.734Z,875.87
2022-09-13T18:33:11.407Z,880.27
2022-09-13T18:37:05.508Z,872.20
2022-09-13T18:45:06.838Z,862.83
2022-09-13T18:47:37.046Z,864.23
2022-09-13T18:50:11.297Z,871.40
2022-09-13T18:52:48.133Z,873.40
2022-09-13T18:55:38.241Z,873.10
2022-09-13T18:58:13.649Z,871.60
2022-09-13T19:00:43.326Z,884.27
2022-09-13T19:03:21.413Z,875.83
2022-09-13T19:05:53.991Z,884.47
2022-09-13T19:08:36.192Z,881.53
2022-09-13T19:11:46.269Z,881.13
2022-09-13T19:14:30.122Z,883.43
2022-09-13T19:17:01.633Z,878.10
2022-09-13T19:19:35.826Z,888.83
2022-09-13T19:22:04.028Z,889.63
2022-09-13T19:24:32.997Z,898.53
2022-09-13T19:30:39.097Z,894.20
2022-09-13T19:34:09.316Z,897.93
2022-09-13T19:37:06.227Z,892.10
2022-09-13T19:43:56.024Z,885.87
2022-09-13T19:46:27.637Z,887.17
2022-09-13T19:48:57.074Z,899.30
2022-09-13T19:51:26.929Z,899.30
2022-09-13T19:53:59.047Z,900.73
2022-09-13T19:56:28.979Z,896.13
2022-09-13T19:59:01.385Z,897.73
2022-09-13T20:01:31.611Z,899.50
2022-09-13T20:04:00.927Z,905.50
2022-09-13T20:06:30.332Z,897.87
2022-09-13T20:09:01.566Z,903.27
2022-09-13T20:11:29.703Z,899.77
2022-09-13T20:13:59.321Z,900.87
2022-09-13T20:16:29.448Z,903.73
2022-09-13T20:18:58.237Z,905.80
2022-09-13T20:21:29.363Z,898.50
2022-09-13T20:24:02.812Z,905.73
2022-09-13T20:26:32.925Z,910.27
2022-09-13T20:29:02.694Z,906.37
2022-09-13T20:31:32.322Z,917.07
2022-09-13T20:34:02.097Z,911.57
2022-09-13T20:36:31.747Z,915.63
2022-09-13T20:39:03.524Z,912.53
2022-09-13T20:41:32.269Z,913.50
2022-09-13T20:44:01.098Z,918.00
2022-09-13T20:46:31.287Z,926.57
2022-09-13T20:49:01.321Z,924.50
2022-09-13T20:51:34.383Z,923.03
2022-09-13T20:54:04.999Z,923.83
2022-09-13T20:56:34.330Z,920.53
2022-09-13T20:59:03.232Z,920.03
2022-09-13T21:01:32.551Z,930.20
2022-09-13T21:04:00.949Z,925.00
2022-09-13T21:06:31.776Z,927.50
2022-09-13T21:09:00.809Z,933.47
2022-09-13T21:11:33.905Z,930.97
2022-09-13T21:14:04.105Z,936.40
2022-09-13T21:16:34.292Z,926.37
2022-09-13T21:19:03.485Z,930.10
2022-09-13T21:21:34.869Z,930.20
2022-09-13T21:24:06.708Z,929.43
2022-09-13T21:26:36.581Z,930.83
2022-09-13T21:29:05.334Z,935.00
2022-09-13T21:31:34.389Z,933.93
2022-09-13T21:34:06.152Z,934.30
2022-09-13T21:36:35.895Z,931.10
2022-09-13T21:39:05.665Z,941.17
2022-09-13T21:41:34.370Z,938.37
2022-09-13T21:44:05.305Z,941.13
2022-09-13T21:46:35.368Z,947.07
2022-09-13T21:49:05.371Z,946.47
2022-09-13T21:51:34.970Z,951.63
2022-09-13T21:54:06.733Z,952.73
2022-09-13T21:56:38.780Z,944.47
2022-09-13T21:59:09.647Z,947.27
2022-09-13T22:01:40.403Z,946.90
2022-09-13T22:04:10.791Z,944.20
2022-09-13T22:06:38.725Z,942.53
2022-09-13T22:09:10.581Z,953.73
2022-09-13T22:11:39.913Z,944.43
2022-09-13T22:14:11.494Z,945.80
2022-09-13T22:16:41.374Z,947.90
2022-09-13T22:19:11.786Z,950.63
2022-09-13T22:21:43.027Z,944.70
2022-09-13T22:24:14.707Z,943.17
2022-09-13T22:26:43.396Z,945.13
2022-09-13T22:29:14.899Z,950.60
2022-09-13T22:31:44.843Z,949.00
2022-09-13T22:34:15.141Z,944.67
2022-09-13T22:36:43.272Z,944.03
2022-09-13T22:39:12.322Z,944.80
2022-09-13T22:41:40.499Z,950.90
2022-09-13T22:44:08.822Z,948.27
2022-09-13T22:46:39.632Z,956.20
2022-09-13T22:49:08.090Z,952.93
2022-09-13T22:51:36.304Z,955.07
2022-09-13T22:54:07.143Z,956.27
2022-09-13T22:56:37.239Z,956.97
2022-09-13T22:59:07.465Z,965.00
2022-09-13T23:01:36.045Z,954.73
2022-09-13T23:04:06.777Z,957.67
2022-09-13T23:06:35.450Z,953.60
2022-09-13T23:09:05.287Z,953.57
2022-09-13T23:11:35.826Z,953.90
2022-09-13T23:14:06.326Z,949.23
2022-09-13T23:16:36.535Z,945.93
2022-09-13T23:19:06.155Z,945.53
2022-09-13T23:21:36.007Z,944.80
2022-09-13T23:24:05.819Z,942.27
2022-09-13T23:26:35.058Z,953.47
2022-09-13T23:29:04.576Z,943.60
2022-09-13T23:31:34.069Z,948.57
2022-09-13T23:34:08.504Z,947.60
2022-09-13T23:36:38.153Z,944.77
2022-09-13T23:39:07.923Z,947.77
2022-09-13T23:41:36.248Z,951.23
2022-09-13T23:44:05.137Z,950.60
2022-09-13T23:46:33.155Z,945.20
2022-09-13T23:49:01.357Z,949.67
2022-09-13T23:51:31.067Z,954.67
2022-09-13T23:54:00.977Z,955.53
2022-09-13T23:56:30.602Z,958.40
2022-09-13T23:59:00.334Z,953.87
